Time;durP1;ratioP1;P1;durP2;ratioP2;P2;SDS_P1;SDS_P2;PMS_P1;PMS_P2;Temp;Humidity;BMP_temperature;BMP_pressure;BME280_temperature;BME280_humidity;BME280_pressure;Samples;Min_cycle;Max_cycle;Signal;HPM_P1;HPM_P2
2023/04/17 00:01:06;;;;;;;;;;;;;;;13.47;66.10;93923.25;4191327;28;20043;-54
2023/04/17 00:03:10;;;;;;;;;;;;;;;13.48;65.97;93919.59;4191619;28;19924;-56
2023/04/17 00:05:12;;;;;;;;;;;;;;;13.45;65.74;93912.13;4193174;28;19966;-51
2023/04/17 00:07:14;;;;;;;;;;;;;;;13.44;65.67;93913.16;4193168;28;19931;-55
2023/04/17 00:09:15;;;;;;;;;;;;;;;13.45;65.59;93914.75;4192726;28;19978;-54
2023/04/17 00:11:17;;;;;;;;;;;;;;;13.47;65.54;93915.38;4193440;28;20398;-51
2023/04/17 00:13:19;;;;;;;;;;;;;;;13.48;65.27;93916.19;4193172;28;20374;-57
2023/04/17 00:15:20;;;;;;;;;;;;;;;13.47;65.13;93915.38;4191936;28;20081;-53
2023/04/17 00:17:22;;;;;;;;;;;;;;;13.47;64.94;93912.75;4193312;28;19967;-55
2023/04/17 00:19:24;;;;;;;;;;;;;;;13.47;65.23;93915.38;4192684;28;19955;-54
2023/04/17 00:21:28;;;;;;;;;;;;;;;13.49;65.07;93910.72;4192913;28;19968;-52
2023/04/17 00:23:30;;;;;;;;;;;;;;;13.51;65.18;93907.91;4192643;28;19932;-52
2023/04/17 00:25:31;;;;;;;;;;;;;;;13.50;64.85;93906.28;4192500;28;19924;-53
2023/04/17 00:27:33;;;;;;;;;;;;;;;13.51;65.10;93908.72;4194231;28;19977;-53
2023/04/17 00:29:36;;;;;;;;;;;;;;;13.54;65.15;93911.97;4195694;28;19967;-56
2023/04/17 00:31:37;;;;;;;;;;;;;;;13.51;64.84;93911.34;4195572;28;19981;-52
2023/04/17 00:33:39;;;;;;;;;;;;;;;13.46;64.91;93905.03;4194912;28;19928;-54
2023/04/17 00:35:41;;;;;;;;;;;;;;;13.50;65.32;93911.53;4195633;28;19969;-53
2023/04/17 00:37:42;;;;;;;;;;;;;;;13.44;65.17;93907.03;4196106;28;19932;-53
2023/04/17 00:39:44;;;;;;;;;;;;;;;13.44;65.25;93907.88;4197106;28;19932;-53
2023/04/17 00:41:45;;;;;;;;;;;;;;;13.43;65.03;93911.50;4196393;28;19932;-51
2023/04/17 00:43:47;;;;;;;;;;;;;;;13.42;65.29;93909.06;4195648;28;19924;-55
2023/04/17 00:45:48;;;;;;;;;;;;;;;13.39;65.46;93905.00;4193399;28;20032;-52
2023/04/17 00:47:50;;;;;;;;;;;;;;;13.43;65.47;93908.88;4191125;28;20022;-52
2023/04/17 00:49:51;;;;;;;;;;;;;;;13.43;65.41;93903.63;4195043;28;20292;-54
2023/04/17 00:51:53;;;;;;;;;;;;;;;13.41;65.73;93905.63;4194207;28;19932;-51
2023/04/17 00:53:55;;;;;;;;;;;;;;;13.36;65.65;93902.78;4196164;28;19932;-53
2023/04/17 00:55:57;;;;;;;;;;;;;;;13.34;65.90;93894.28;4195334;28;19928;-56
2023/04/17 00:57:59;;;;;;;;;;;;;;;13.34;65.51;93889.00;4194236;28;20047;-52
2023/04/17 01:00:00;;;;;;;;;;;;;;;13.35;65.87;93887.19;4193346;28;20692;-56
2023/04/17 01:02:02;;;;;;;;;;;;;;;13.35;65.45;93890.63;4196270;28;19970;-54
2023/04/17 01:04:04;;;;;;;;;;;;;;;13.27;65.69;93888.94;4194628;28;20280;-51
2023/04/17 01:06:05;;;;;;;;;;;;;;;13.25;65.82;93885.69;4196967;28;19924;-54
2023/04/17 01:08:07;;;;;;;;;;;;;;;13.27;65.52;93885.47;4195790;28;20419;-54
2023/04/17 01:10:09;;;;;;;;;;;;;;;13.24;66.06;93886.69;4197724;28;20352;-55
2023/04/17 01:12:17;;;;;;;;;;;;;;;13.20;66.02;93882.03;4199568;28;19925;-55
2023/04/17 01:14:18;;;;;;;;;;;;;;;13.13;66.15;93881.19;4195601;28;20323;-56
2023/04/17 01:16:20;;;;;;;;;;;;;;;13.11;65.79;93873.50;4183102;28;20015;-53
2023/04/17 01:18:21;;;;;;;;;;;;;;;13.06;65.56;93879.34;4195339;28;20275;-55
2023/04/17 01:20:24;;;;;;;;;;;;;;;13.01;65.55;93880.91;4195569;28;19924;-55
2023/04/17 01:22:25;;;;;;;;;;;;;;;12.99;65.18;93877.66;4194809;28;19924;-53
2023/04/17 01:24:27;;;;;;;;;;;;;;;12.97;65.03;93875.25;4193541;28;19936;-56
2023/04/17 01:26:30;;;;;;;;;;;;;;;12.96;64.53;93875.44;4187599;28;20384;-52
2023/04/17 01:28:31;;;;;;;;;;;;;;;12.91;64.30;93876.00;4195377;28;19978;-53
2023/04/17 01:30:34;;;;;;;;;;;;;;;12.91;64.36;93878.66;4193075;28;19978;-55
2023/04/17 01:32:35;;;;;;;;;;;;;;;12.93;63.96;93884.53;4193583;28;19947;-52
2023/04/17 01:34:37;;;;;;;;;;;;;;;12.95;63.20;93879.88;4194463;28;19932;-55
2023/04/17 01:36:39;;;;;;;;;;;;;;;12.91;62.79;93879.44;4195088;28;19936;-54
2023/04/17 01:38:40;;;;;;;;;;;;;;;12.88;62.84;93874.59;4189991;28;19932;-55
2023/04/17 01:40:42;;;;;;;;;;;;;;;12.85;62.91;93876.78;4194742;28;19928;-53
2023/04/17 01:42:43;;;;;;;;;;;;;;;12.90;62.49;93874.38;4195037;28;19924;-52
2023/04/17 01:44:45;;;;;;;;;;;;;;;12.91;62.22;93871.56;4193782;28;19937;-56
2023/04/17 01:46:46;;;;;;;;;;;;;;;12.91;62.27;93870.75;4190942;28;20377;-55
2023/04/17 01:48:48;;;;;;;;;;;;;;;12.87;62.42;93864.25;4191832;28;20061;-52
2023/04/17 01:50:49;;;;;;;;;;;;;;;12.84;62.19;93864.63;4194197;28;19932;-52
2023/04/17 01:52:51;;;;;;;;;;;;;;;12.85;62.51;93858.38;4195085;28;20404;-53
2023/04/17 01:54:52;;;;;;;;;;;;;;;12.86;61.92;93862.63;4193905;28;19924;-51
2023/04/17 01:56:54;;;;;;;;;;;;;;;12.83;62.25;93863.81;4185846;28;19932;-54
2023/04/17 01:58:55;;;;;;;;;;;;;;;12.83;61.76;93858.56;4194541;28;20411;-55
2023/04/17 02:00:57;;;;;;;;;;;;;;;12.88;61.71;93860.63;4191893;28;19928;-55
2023/04/17 02:02:59;;;;;;;;;;;;;;;12.87;61.73;93854.56;4190961;28;19932;-55
2023/04/17 02:05:00;;;;;;;;;;;;;;;12.87;61.83;93857.19;4194395;28;20014;-51
2023/04/17 02:07:02;;;;;;;;;;;;;;;12.89;61.75;93857.81;4195072;28;19924;-54
2023/04/17 02:09:03;;;;;;;;;;;;;;;12.86;61.66;93858.19;4194246;28;19974;-55
2023/04/17 02:11:05;;;;;;;;;;;;;;;12.69;61.67;93848.97;4193881;28;19979;-59
2023/04/17 02:13:07;;;;;;;;;;;;;;;12.60;62.50;93848.31;4183615;28;20070;-55
2023/04/17 02:15:08;;;;;;;;;;;;;;;12.63;62.24;93852.38;4193936;28;19933;-60
2023/04/17 02:17:10;;;;;;;;;;;;;;;12.69;62.49;93843.72;4194482;28;19924;-53
2023/04/17 02:19:12;;;;;;;;;;;;;;;12.76;62.31;93854.28;4192947;28;19976;-54
2023/04/17 02:21:14;;;;;;;;;;;;;;;12.83;62.41;93850.69;4194244;28;19935;-54
2023/04/17 02:23:15;;;;;;;;;;;;;;;12.88;62.12;93850.09;4193596;28;19931;-55
2023/04/17 02:25:17;;;;;;;;;;;;;;;12.92;61.99;93851.34;4194531;28;19928;-50
2023/04/17 02:27:18;;;;;;;;;;;;;;;12.94;61.72;93857.22;4194141;28;19981;-55
2023/04/17 02:29:20;;;;;;;;;;;;;;;12.94;62.02;93854.59;4193690;28;19931;-51
2023/04/17 02:31:22;;;;;;;;;;;;;;;12.92;61.86;93851.34;4193562;28;19989;-52
2023/04/17 02:33:24;;;;;;;;;;;;;;;12.93;62.27;93854.78;4193273;28;19924;-53
2023/04/17 02:35:27;;;;;;;;;;;;;;;12.96;62.21;93857.03;4193738;28;20355;-52
2023/04/17 02:37:28;;;;;;;;;;;;;;;12.93;62.10;93854.78;4194199;28;19932;-53
2023/04/17 02:39:30;;;;;;;;;;;;;;;12.89;62.59;93849.91;4193243;28;19967;-51
2023/04/17 02:41:32;;;;;;;;;;;;;;;12.88;63.08;93850.94;4193998;28;19925;-55
2023/04/17 02:43:33;;;;;;;;;;;;;;;12.82;64.10;93854.34;4193311;28;20398;-53
2023/04/17 02:45:35;;;;;;;;;;;;;;;12.77;64.75;93858.53;4192835;28;20283;-52
2023/04/17 02:47:37;;;;;;;;;;;;;;;12.61;65.51;93855.19;4192414;28;19929;-52
2023/04/17 02:49:40;;;;;;;;;;;;;;;12.56;65.69;93860.22;4192680;28;20005;-54
2023/04/17 02:51:42;;;;;;;;;;;;;;;12.54;66.04;93853.53;4192772;28;20655;-53
2023/04/17 02:53:43;;;;;;;;;;;;;;;12.57;65.92;93859.22;4192459;28;20398;-54
2023/04/17 02:55:45;;;;;;;;;;;;;;;12.59;66.14;93862.47;4193322;28;20344;-57
2023/04/17 02:57:47;;;;;;;;;;;;;;;12.56;66.15;93856.78;4193241;28;19936;-55
2023/04/17 02:59:49;;;;;;;;;;;;;;;12.56;66.03;93852.34;4193476;28;19925;-55
2023/04/17 03:01:50;;;;;;;;;;;;;;;12.58;66.25;93858.19;4193117;28;19932;-55
2023/04/17 03:03:52;;;;;;;;;;;;;;;12.61;66.14;93854.41;4192203;28;19925;-57
2023/04/17 03:05:54;;;;;;;;;;;;;;;12.64;66.09;93859.25;4192801;28;19925;-51
2023/04/17 03:07:57;;;;;;;;;;;;;;;12.65;66.07;93866.97;4193556;28;19982;-50
2023/04/17 03:09:58;;;;;;;;;;;;;;;12.62;65.81;93864.69;4193410;28;19924;-53
2023/04/17 03:12:00;;;;;;;;;;;;;;;12.49;66.24;93861.97;4193746;28;19924;-50
2023/04/17 03:14:01;;;;;;;;;;;;;;;12.44;66.74;93867.81;4192599;28;20372;-52
2023/04/17 03:16:03;;;;;;;;;;;;;;;12.46;66.61;93873.69;4182131;28;19928;-54
2023/04/17 03:18:05;;;;;;;;;;;;;;;12.47;67.18;93871.88;4192334;28;20019;-53
2023/04/17 03:20:07;;;;;;;;;;;;;;;12.27;67.95;93869.91;4193038;28;20402;-52
2023/04/17 03:22:09;;;;;;;;;;;;;;;12.17;68.33;93869.41;4192607;28;19948;-53
2023/04/17 03:24:13;;;;;;;;;;;;;;;12.16;68.63;93866.97;4193002;28;19925;-53
2023/04/17 03:26:15;;;;;;;;;;;;;;;12.06;69.23;93875.97;4193252;28;19963;-53
2023/04/17 03:28:17;;;;;;;;;;;;;;;12.01;69.53;93874.94;4193446;28;20368;-54
2023/04/17 03:30:18;;;;;;;;;;;;;;;12.06;69.72;93868.09;4191777;28;20010;-54
2023/04/17 03:32:20;;;;;;;;;;;;;;;12.08;69.21;93878.41;4192374;28;19982;-51
2023/04/17 03:34:21;;;;;;;;;;;;;;;12.05;69.55;93863.06;4190223;28;19936;-52
2023/04/17 03:36:23;;;;;;;;;;;;;;;12.02;69.67;93873.91;4192834;28;20031;-59
2023/04/17 03:38:24;;;;;;;;;;;;;;;11.98;70.17;93872.66;4185525;28;19929;-55
2023/04/17 03:40:26;;;;;;;;;;;;;;;11.94;69.86;93874.88;4192534;28;19955;-52
2023/04/17 03:42:27;;;;;;;;;;;;;;;11.98;69.96;93872.66;4193393;28;20022;-54
2023/04/17 03:44:29;;;;;;;;;;;;;;;11.91;69.98;93877.03;4192463;28;20016;-52
2023/04/17 03:46:31;;;;;;;;;;;;;;;11.90;70.19;93878.06;4187131;28;19925;-52
2023/04/17 03:48:32;;;;;;;;;;;;;;;11.92;69.96;93881.31;4189744;28;19996;-53
2023/04/17 03:50:34;;;;;;;;;;;;;;;11.83;70.03;93875.31;4189000;28;19951;-52
2023/04/17 03:52:35;;;;;;;;;;;;;;;11.79;70.41;93882.75;4192048;28;20027;-52
2023/04/17 03:54:37;;;;;;;;;;;;;;;11.88;70.04;93880.84;4192215;28;19980;-56
2023/04/17 03:56:39;;;;;;;;;;;;;;;11.95;69.56;93878.28;4192264;28;19985;-54
2023/04/17 03:58:40;;;;;;;;;;;;;;;12.01;68.82;93877.56;4192840;28;19998;-54
2023/04/17 04:00:44;;;;;;;;;;;;;;;12.06;68.32;93870.72;4191695;28;19982;-53
2023/04/17 04:02:45;;;;;;;;;;;;;;;12.06;68.06;93868.09;4191864;28;19925;-54
2023/04/17 04:04:49;;;;;;;;;;;;;;;12.11;67.71;93872.81;4190528;28;20330;-54
2023/04/17 04:06:53;;;;;;;;;;;;;;;12.20;67.33;93870.88;4192650;28;20436;-53
2023/04/17 04:08:55;;;;;;;;;;;;;;;12.08;67.20;93876.59;4192956;28;19978;-56
2023/04/17 04:10:58;;;;;;;;;;;;;;;12.13;67.21;93868.19;4192868;28;20200;-56
2023/04/17 04:13:00;;;;;;;;;;;;;;;12.13;66.79;93873.44;4191341;28;20047;-52
2023/04/17 04:15:02;;;;;;;;;;;;;;;12.14;66.60;93869.00;4191786;28;20016;-54
2023/04/17 04:17:03;;;;;;;;;;;;;;;12.15;66.13;93876.66;4192015;28;19924;-55
2023/04/17 04:19:04;;;;;;;;;;;;;;;12.17;65.94;93871.22;4192015;28;19960;-52
2023/04/17 04:21:06;;;;;;;;;;;;;;;12.17;65.83;93879.91;4192942;28;20393;-54
2023/04/17 04:23:08;;;;;;;;;;;;;;;12.17;66.00;93882.53;4192765;28;19929;-54
2023/04/17 04:25:09;;;;;;;;;;;;;;;12.21;65.83;93878.53;4191782;28;19967;-54
2023/04/17 04:27:11;;;;;;;;;;;;;;;12.06;66.13;93885.66;4192745;28;19924;-56
2023/04/17 04:29:13;;;;;;;;;;;;;;;11.73;68.41;93888.75;4192514;28;19924;-54
2023/04/17 04:31:17;;;;;;;;;;;;;;;11.45;69.57;93886.03;4192197;28;20019;-55
2023/04/17 04:33:19;;;;;;;;;;;;;;;11.45;69.71;93889.44;4190854;28;19951;-57
2023/04/17 04:35:24;;;;;;;;;;;;;;;11.37;69.90;93892.16;4191828;28;19970;-56
2023/04/17 04:37:29;;;;;;;;;;;;;;;11.38;69.78;93888.56;4192236;28;19955;-54
2023/04/17 04:39:30;;;;;;;;;;;;;;;11.57;69.48;93894.22;4188499;28;19924;-55
2023/04/17 04:41:32;;;;;;;;;;;;;;;11.75;68.72;93893.81;4193191;28;19924;-53
2023/04/17 04:43:34;;;;;;;;;;;;;;;11.89;67.75;93890.34;4191650;28;20034;-53
2023/04/17 04:45:36;;;;;;;;;;;;;;;11.99;67.60;93892.69;4191467;28;19925;-54
2023/04/17 04:47:37;;;;;;;;;;;;;;;12.06;67.26;93894.34;4192228;28;20343;-55
2023/04/17 04:49:39;;;;;;;;;;;;;;;12.16;67.08;93896.66;4188620;28;20042;-52
2023/04/17 04:51:41;;;;;;;;;;;;;;;12.18;66.58;93893.88;4192209;28;19924;-54
2023/04/17 04:53:42;;;;;;;;;;;;;;;12.16;66.87;93891.41;4189795;28;19925;-52
2023/04/17 04:55:44;;;;;;;;;;;;;;;12.17;66.63;93890.41;4192271;28;19986;-53
2023/04/17 04:57:45;;;;;;;;;;;;;;;11.79;67.64;93895.88;4192074;28;19924;-53
2023/04/17 04:59:47;;;;;;;;;;;;;;;11.59;68.20;93897.47;4191414;28;19929;-54
2023/04/17 05:01:49;;;;;;;;;;;;;;;11.66;68.80;93895.75;4192237;28;19928;-53
2023/04/17 05:03:50;;;;;;;;;;;;;;;11.71;68.60;93897.81;4190409;28;20299;-52
2023/04/17 05:05:52;;;;;;;;;;;;;;;11.64;69.11;93900.38;4191816;28;19925;-55
2023/04/17 05:07:54;;;;;;;;;;;;;;;11.65;68.87;93897.53;4192134;28;20309;-50
2023/04/17 05:09:55;;;;;;;;;;;;;;;11.77;68.87;93902.31;4191926;28;20323;-52
2023/04/17 05:11:57;;;;;;;;;;;;;;;11.92;68.36;93902.31;4191826;28;20023;-54
2023/04/17 05:13:58;;;;;;;;;;;;;;;12.06;67.81;93896.16;4191837;28;19928;-53
2023/04/17 05:16:00;;;;;;;;;;;;;;;12.17;66.99;93897.47;4194629;28;20043;-55
2023/04/17 05:18:02;;;;;;;;;;;;;;;12.22;67.08;93898.53;4194393;28;19990;-54
2023/04/17 05:20:14;;;;;;;;;;;;;;;12.31;66.78;93903.69;4195166;28;19928;-55
2023/04/17 05:22:15;;;;;;;;;;;;;;;12.39;66.39;93904.34;4194978;28;20361;-51
2023/04/17 05:24:17;;;;;;;;;;;;;;;12.50;65.81;93901.19;4195094;28;19928;-52
2023/04/17 05:26:21;;;;;;;;;;;;;;;12.54;65.25;93899.03;4195138;28;19925;-53
2023/04/17 05:28:22;;;;;;;;;;;;;;;12.63;65.13;93900.50;4194153;28;19932;-54
2023/04/17 05:30:24;;;;;;;;;;;;;;;12.70;64.63;93901.34;4193758;28;19924;-51
2023/04/17 05:32:25;;;;;;;;;;;;;;;12.78;64.32;93900.41;4194267;28;19939;-53
2023/04/17 05:34:27;;;;;;;;;;;;;;;12.78;63.91;93894.34;4194151;28;20199;-55
2023/04/17 05:36:30;;;;;;;;;;;;;;;12.72;63.89;93889.84;4194806;28;20015;-54
2023/04/17 05:38:31;;;;;;;;;;;;;;;12.60;63.46;93895.59;4194319;28;19925;-52
2023/04/17 05:40:33;;;;;;;;;;;;;;;12.62;63.85;93901.47;4192722;28;19925;-53
2023/04/17 05:42:35;;;;;;;;;;;;;;;12.68;64.06;93910.44;4194598;28;20245;-55
2023/04/17 05:44:38;;;;;;;;;;;;;;;12.51;64.18;93904.63;4194025;28;19925;-52
2023/04/17 05:46:39;;;;;;;;;;;;;;;12.43;64.61;93910.03;4194938;28;19987;-52
2023/04/17 05:48:41;;;;;;;;;;;;;;;12.47;64.54;93906.81;4193794;28;19933;-52
2023/04/17 05:50:42;;;;;;;;;;;;;;;12.57;64.53;93910.97;4191716;28;20007;-56
2023/04/17 05:52:47;;;;;;;;;;;;;;;12.66;64.13;93910.59;4193911;28;19928;-52
2023/04/17 05:54:48;;;;;;;;;;;;;;;12.63;64.52;93907.56;4194398;28;20447;-53
2023/04/17 05:56:50;;;;;;;;;;;;;;;12.65;64.36;93914.25;4193093;28;20047;-55
2023/04/17 05:58:52;;;;;;;;;;;;;;;12.60;64.76;93914.00;4194332;28;19928;-54
2023/04/17 06:00:53;;;;;;;;;;;;;;;12.57;64.87;93913.59;4194215;28;19990;-59
2023/04/17 06:02:55;;;;;;;;;;;;;;;12.48;64.96;93910.28;4194283;28;19988;-56
2023/04/17 06:04:57;;;;;;;;;;;;;;;12.44;65.22;93914.28;4193987;28;19928;-51
2023/04/17 06:07:01;;;;;;;;;;;;;;;12.52;64.75;93919.41;4194478;28;19924;-50
2023/04/17 06:09:04;;;;;;;;;;;;;;;12.53;64.33;93917.59;4194111;28;19924;-50
2023/04/17 06:11:06;;;;;;;;;;;;;;;12.51;64.84;93923.03;4193503;28;20422;-55
2023/04/17 06:13:08;;;;;;;;;;;;;;;12.52;64.69;93929.09;4193778;28;20270;-52
2023/04/17 06:15:09;;;;;;;;;;;;;;;12.56;64.69;93927.72;4193135;28;20011;-53
2023/04/17 06:17:11;;;;;;;;;;;;;;;12.56;64.58;93922.44;4194054;28;20309;-54
2023/04/17 06:19:13;;;;;;;;;;;;;;;12.62;64.71;93922.50;4193520;28;19932;-56
2023/04/17 06:21:14;;;;;;;;;;;;;;;12.54;64.51;93927.91;4194598;28;20019;-53
2023/04/17 06:23:16;;;;;;;;;;;;;;;12.56;64.64;93933.78;4193915;28;19924;-51
2023/04/17 06:25:18;;;;;;;;;;;;;;;12.65;64.31;93931.84;4193713;28;20031;-55
2023/04/17 06:27:19;;;;;;;;;;;;;;;12.69;64.04;93931.25;4194721;28;19924;-55
2023/04/17 06:29:21;;;;;;;;;;;;;;;12.81;64.22;93938.63;4193647;28;20415;-55
2023/04/17 06:31:22;;;;;;;;;;;;;;;12.90;63.77;93942.72;4193452;28;19925;-53
2023/04/17 06:33:24;;;;;;;;;;;;;;;12.99;63.66;93941.59;4193155;28;20017;-55
2023/04/17 06:35:27;;;;;;;;;;;;;;;13.06;63.59;93942.44;4193772;28;19928;-54
2023/04/17 06:37:28;;;;;;;;;;;;;;;13.13;63.20;93947.72;4193331;28;19928;-55
2023/04/17 06:39:30;;;;;;;;;;;;;;;13.01;62.99;93944.00;4190636;28;19968;-53
2023/04/17 06:41:32;;;;;;;;;;;;;;;12.95;63.43;93942.97;4193462;28;20007;-53
2023/04/17 06:43:33;;;;;;;;;;;;;;;12.91;62.85;93941.72;4193319;28;19972;-55
2023/04/17 06:45:35;;;;;;;;;;;;;;;12.93;62.91;93944.16;4193253;28;19928;-50
2023/04/17 06:47:36;;;;;;;;;;;;;;;12.95;63.11;93950.03;4193626;28;19925;-60
2023/04/17 06:49:38;;;;;;;;;;;;;;;13.03;62.85;93939.38;4193363;28;20138;-52
2023/04/17 06:51:40;;;;;;;;;;;;;;;13.15;62.04;93945.72;4192664;28;19939;-53
2023/04/17 06:53:41;;;;;;;;;;;;;;;13.23;62.09;93942.16;4184641;28;19974;-54
2023/04/17 06:55:44;;;;;;;;;;;;;;;13.26;61.76;93944.38;4193537;28;19985;-56
2023/04/17 06:57:45;;;;;;;;;;;;;;;13.28;61.59;93945.00;4193423;28;19932;-61
2023/04/17 06:59:47;;;;;;;;;;;;;;;13.24;61.84;93947.19;4192828;28;19935;-60
2023/04/17 07:01:48;;;;;;;;;;;;;;;13.19;62.21;93951.41;4193979;28;20555;-64
2023/04/17 07:03:50;;;;;;;;;;;;;;;13.20;61.94;93953.84;4192133;28;20046;-61
2023/04/17 07:05:52;;;;;;;;;;;;;;;13.14;62.06;93948.53;4193425;28;19924;-61
2023/04/17 07:07:54;;;;;;;;;;;;;;;12.95;62.51;93942.97;4192051;28;19981;-62
2023/04/17 07:09:55;;;;;;;;;;;;;;;13.03;62.69;93942.81;4191726;28;19974;-62
2023/04/17 07:11:57;;;;;;;;;;;;;;;13.23;62.75;93942.16;4193295;28;19925;-61
2023/04/17 07:13:58;;;;;;;;;;;;;;;13.42;62.41;93941.47;4192793;28;19944;-61
2023/04/17 07:16:00;;;;;;;;;;;;;;;13.50;61.99;93946.53;4192338;28;20024;-62
2023/04/17 07:18:02;;;;;;;;;;;;;;;13.50;61.79;93946.53;4191826;28;19939;-61
2023/04/17 07:20:04;;;;;;;;;;;;;;;13.61;61.67;93952.25;4193836;28;19929;-61
2023/04/17 07:22:06;;;;;;;;;;;;;;;13.71;61.45;93952.72;4193331;28;19924;-62
2023/04/17 07:24:08;;;;;;;;;;;;;;;13.83;60.94;93958.22;4193783;28;20537;-61
2023/04/17 07:26:10;;;;;;;;;;;;;;;13.89;60.29;93955.59;4193306;28;19974;-63
2023/04/17 07:28:11;;;;;;;;;;;;;;;13.86;60.07;93958.66;4193498;28;20402;-62
2023/04/17 07:30:13;;;;;;;;;;;;;;;13.75;60.48;93961.03;4192061;28;19932;-61
2023/04/17 07:32:15;;;;;;;;;;;;;;;13.43;61.31;93956.22;4192562;28;20374;-62
2023/04/17 07:34:17;;;;;;;;;;;;;;;13.08;62.62;93956.22;4191901;28;20470;-62
2023/04/17 07:36:18;;;;;;;;;;;;;;;13.09;62.54;93957.00;4193164;28;19928;-60
2023/04/17 07:38:20;;;;;;;;;;;;;;;13.18;62.27;93958.47;4189072;28;20338;-61
2023/04/17 07:40:21;;;;;;;;;;;;;;;13.38;62.18;93956.00;4193090;28;20280;-64
2023/04/17 07:42:23;;;;;;;;;;;;;;;13.49;62.48;93952.81;4193172;28;19990;-62
2023/04/17 07:44:25;;;;;;;;;;;;;;;13.73;61.62;93948.06;4192491;28;19947;-61
2023/04/17 07:46:26;;;;;;;;;;;;;;;13.88;61.05;93946.09;4193383;28;19932;-62
2023/04/17 07:48:28;;;;;;;;;;;;;;;13.92;60.47;93951.78;4190292;28;19928;-61
2023/04/17 07:50:29;;;;;;;;;;;;;;;13.94;60.50;93947.13;4192761;28;19925;-60
2023/04/17 07:52:31;;;;;;;;;;;;;;;13.65;60.86;93956.94;4188762;28;19996;-62
2023/04/17 07:54:32;;;;;;;;;;;;;;;13.70;60.76;93958.97;4192200;28;19978;-64
2023/04/17 07:56:35;;;;;;;;;;;;;;;13.92;60.79;93957.84;4193222;28;19924;-62
2023/04/17 07:58:37;;;;;;;;;;;;;;;14.05;59.75;93954.47;4193011;28;19986;-62
2023/04/17 08:00:40;;;;;;;;;;;;;;;14.17;59.00;93957.31;4191550;28;20343;-61
2023/04/17 08:02:41;;;;;;;;;;;;;;;14.18;58.72;93956.31;4174957;28;20302;-60
2023/04/17 08:04:43;;;;;;;;;;;;;;;14.12;59.02;93955.28;4192821;28;20363;-61
2023/04/17 08:06:45;;;;;;;;;;;;;;;14.18;59.51;93955.50;4193163;28;19962;-58
2023/04/17 08:08:47;;;;;;;;;;;;;;;13.99;58.66;93960.50;4192776;28;20296;-58
2023/04/17 08:10:49;;;;;;;;;;;;;;;13.97;58.71;93962.53;4192365;28;19940;-62
2023/04/17 08:12:51;;;;;;;;;;;;;;;14.10;58.70;93959.94;4191639;28;19971;-62
2023/04/17 08:14:52;;;;;;;;;;;;;;;14.32;58.60;93968.47;4191341;28;19925;-61
2023/04/17 08:16:54;;;;;;;;;;;;;;;14.43;57.83;93969.75;4193086;28;20548;-60
2023/04/17 08:18:56;;;;;;;;;;;;;;;14.57;57.35;93967.16;4191223;28;19984;-62
2023/04/17 08:20:57;;;;;;;;;;;;;;;14.54;57.65;93969.16;4193033;28;19924;-61
2023/04/17 08:22:59;;;;;;;;;;;;;;;14.47;58.04;93963.03;4193013;28;19928;-62
2023/04/17 08:25:01;;;;;;;;;;;;;;;14.10;59.15;93959.13;4191044;28;20028;-61
2023/04/17 08:27:04;;;;;;;;;;;;;;;14.00;60.48;93967.38;4192455;28;20253;-61
2023/04/17 08:29:06;;;;;;;;;;;;;;;14.10;60.78;93964.38;4192849;28;19924;-64
2023/04/17 08:31:09;;;;;;;;;;;;;;;14.27;60.97;93967.47;4191894;28;20357;-60
2023/04/17 08:33:12;;;;;;;;;;;;;;;14.37;61.10;93967.91;4192069;28;19924;-62
2023/04/17 08:35:14;;;;;;;;;;;;;;;14.38;60.39;93973.97;4191324;28;20389;-62
2023/04/17 08:37:15;;;;;;;;;;;;;;;14.27;60.53;93970.13;4192106;28;20008;-62
2023/04/17 08:39:18;;;;;;;;;;;;;;;14.19;62.04;93965.81;4192109;28;19981;-60
2023/04/17 08:41:20;;;;;;;;;;;;;;;14.14;62.93;93971.69;4193636;28;19934;-62
2023/04/17 08:43:22;;;;;;;;;;;;;;;13.97;64.48;93980.97;4192410;28;20018;-62
2023/04/17 08:45:24;;;;;;;;;;;;;;;13.99;65.08;93973.69;4190612;28;19972;-64
2023/04/17 08:47:26;;;;;;;;;;;;;;;14.07;65.19;93970.06;4192572;28;19929;-66
2023/04/17 08:49:28;;;;;;;;;;;;;;;14.22;65.10;93975.97;4193126;28;19967;-61
2023/04/17 08:51:30;;;;;;;;;;;;;;;14.24;66.00;93976.59;4195893;28;20006;-63
2023/04/17 08:53:32;;;;;;;;;;;;;;;14.21;66.39;93984.88;4192942;28;19997;-62
2023/04/17 08:55:33;;;;;;;;;;;;;;;14.19;66.18;93979.00;4192257;28;20368;-63
2023/04/17 08:57:36;;;;;;;;;;;;;;;14.13;65.73;93979.78;4194674;28;19924;-62
2023/04/17 08:59:38;;;;;;;;;;;;;;;14.15;66.45;93980.41;4193217;28;19950;-62
2023/04/17 09:01:57;;;;;;;;;;;;;;;14.26;65.57;93976.38;4193563;28;19989;-61
2023/04/17 09:03:59;;;;;;;;;;;;;;;14.29;66.07;93981.25;4194607;28;19932;-62
2023/04/17 09:06:01;;;;;;;;;;;;;;;14.41;65.48;93977.03;4196059;28;20223;-63
2023/04/17 09:08:06;;;;;;;;;;;;;;;14.49;65.69;93983.94;4195965;28;19932;-61
2023/04/17 09:10:07;;;;;;;;;;;;;;;14.64;64.91;93981.13;4186819;28;20002;-62
2023/04/17 09:12:10;;;;;;;;;;;;;;;14.60;64.13;93978.09;4195253;28;19955;-62
2023/04/17 09:14:28;;;;;;;;;;;;;;;14.61;64.41;93981.56;4196108;28;20273;-63
2023/04/17 09:16:29;;;;;;;;;;;;;;;14.72;64.75;93979.13;4195184;28;19944;-61
2023/04/17 09:18:32;;;;;;;;;;;;;;;14.68;63.43;93972.63;4194312;28;19944;-64
2023/04/17 09:20:38;;;;;;;;;;;;;;;14.56;62.94;93976.88;4188071;28;19925;-64
2023/04/17 09:22:39;;;;;;;;;;;;;;;14.49;63.42;93976.03;4193924;28;19932;-62
2023/04/17 09:24:41;;;;;;;;;;;;;;;14.49;64.01;93970.75;4193861;28;19929;-65
2023/04/17 09:26:43;;;;;;;;;;;;;;;14.54;63.10;93970.97;4194219;28;19936;-64
2023/04/17 09:29:02;;;;;;;;;;;;;;;14.70;63.54;93969.78;4195205;28;20464;-62
2023/04/17 09:31:16;;;;;;;;;;;;;;;14.96;62.89;93961.06;4194118;28;19928;-64
2023/04/17 09:33:18;;;;;;;;;;;;;;;15.16;61.97;93966.31;4194080;28;19925;-63
2023/04/17 09:35:24;;;;;;;;;;;;;;;15.14;60.57;93956.00;4194992;28;19932;-63
2023/04/17 09:37:26;;;;;;;;;;;;;;;15.04;59.55;93958.22;4195625;28;20291;-63
2023/04/17 09:39:27;;;;;;;;;;;;;;;15.07;59.65;93963.09;4192938;28;20386;-62
2023/04/17 09:41:30;;;;;;;;;;;;;;;15.15;58.32;93962.06;4195496;28;19933;-64
2023/04/17 09:43:39;;;;;;;;;;;;;;;15.13;58.04;93972.81;4190971;28;19986;-63
2023/04/17 09:45:43;;;;;;;;;;;;;;;14.99;58.55;93975.66;4187752;28;19925;-63
2023/04/17 09:47:47;;;;;;;;;;;;;;;14.68;59.24;93985.00;4195030;28;20024;-62
2023/04/17 09:49:51;;;;;;;;;;;;;;;14.58;59.21;93982.75;4193035;28;20022;-60
2023/04/17 09:51:53;;;;;;;;;;;;;;;14.39;60.63;93984.34;4193750;28;20436;-62
2023/04/17 09:53:55;;;;;;;;;;;;;;;14.31;61.65;93973.97;4192450;28;19924;-64
2023/04/17 09:56:00;;;;;;;;;;;;;;;14.25;62.44;93978.22;4190141;28;19924;-62
2023/04/17 09:58:03;;;;;;;;;;;;;;;14.27;63.53;93975.38;4194882;28;20007;-63
2023/04/17 10:00:08;;;;;;;;;;;;;;;14.28;64.00;93977.00;4192235;28;19971;-64
2023/04/17 10:02:11;;;;;;;;;;;;;;;14.34;63.89;93973.56;4195009;28;19928;-63
2023/04/17 10:04:13;;;;;;;;;;;;;;;14.33;63.61;93969.31;4193837;28;20373;-63
2023/04/17 10:06:15;;;;;;;;;;;;;;;14.40;63.21;93964.88;4193287;28;19924;-63
2023/04/17 10:08:16;;;;;;;;;;;;;;;14.54;62.94;93970.97;4193628;28;19936;-63
2023/04/17 10:10:21;;;;;;;;;;;;;;;14.65;62.37;93962.50;4194541;28;19925;-63
2023/04/17 10:12:22;;;;;;;;;;;;;;;14.83;62.13;93953.97;4193078;28;20069;-62
2023/04/17 10:14:29;;;;;;;;;;;;;;;14.97;62.63;93957.44;4192401;28;19943;-61
2023/04/17 10:16:34;;;;;;;;;;;;;;;15.14;60.81;93956.00;4194603;28;19932;-62
2023/04/17 10:18:36;;;;;;;;;;;;;;;15.27;60.54;93947.25;4193090;28;19924;-62
2023/04/17 10:20:37;;;;;;;;;;;;;;;15.30;60.99;93954.72;4194452;28;19928;-60
2023/04/17 10:22:40;;;;;;;;;;;;;;;15.39;60.45;93944.78;4195096;28;19931;-62
2023/04/17 10:24:41;;;;;;;;;;;;;;;15.48;59.55;93943.50;4194240;28;19979;-64
2023/04/17 10:26:43;;;;;;;;;;;;;;;15.62;58.93;93941.66;4194397;28;19936;-61
2023/04/17 10:28:48;;;;;;;;;;;;;;;15.81;58.58;93941.81;4194065;28;19973;-62
2023/04/17 10:30:52;;;;;;;;;;;;;;;15.81;57.03;93941.81;4193246;28;19932;-64
2023/04/17 10:33:18;;;;;;;;;;;;;;;15.85;55.09;93943.84;4194029;28;20000;-63
2023/04/17 10:35:20;;;;;;;;;;;;;;;15.92;54.52;93946.47;4193057;28;20015;-62
2023/04/17 10:37:43;;;;;;;;;;;;;;;15.91;53.95;93935.06;4194324;28;19928;-61